Time,TemperatureF,DewpointF,PressureIn,WindDirection,WindDirectionDegrees,WindSpeedMPH,WindSpeedGustMPH,Humidity,HourlyPrecipIn,Conditions,Clouds,dailyrainin,SolarRadiationWatts/m^2,SoftwareType,DateUTC
2013-05-10 00:01:00,49.6,45.9,30.17,SSE,147,3.5,3.5,87,0.00,CLR,,0.00,0.0,WeatherDisplay:10.37,2013-05-10 07:01:00,
2013-05-10 00:06:00,49.7,46.3,30.18,SSE,147,2.4,3.5,88,0.00,CLR,,0.00,0.0,WeatherDisplay:10.37,2013-05-10 07:06:00,
2013-05-10 00:11:00,49.6,45.9,30.18,SSE,147,2.2,3.5,87,0.00,CLR,,0.00,0.0,WeatherDisplay:10.37,2013-05-10 07:11:00,
2013-05-10 00:16:00,49.6,45.9,30.18,SE,146,2.0,3.5,87,0.00,CLR,,0.00,0.0,WeatherDisplay:10.37,2013-05-10 07:16:00,
2013-05-10 00:21:00,49.5,46.1,30.18,SSE,147,2.6,3.5,88,0.00,CLR,,0.00,0.0,WeatherDisplay:10.37,2013-05-10 07:21:00,
2013-05-10 00:26:00,49.5,46.1,30.18,SSE,147,2.0,3.0,88,0.00,CLR,,0.00,0.0,WeatherDisplay:10.37,2013-05-10 07:26:00,
2013-05-10 00:31:00,49.5,46.4,30.18,SSE,147,2.1,3.5,89,0.00,CLR,,0.00,0.0,WeatherDisplay:10.37,2013-05-10 07:31:00,
2013-05-10 00:36:00,49.4,46.3,30.18,SSE,147,2.7,3.5,89,0.00,CLR,,0.00,0.0,WeatherDisplay:10.37,2013-05-10 07:36:00,
2013-05-10 00:41:00,49.3,45.9,30.18,SSE,147,2.2,3.5,88,0.00,CLR,,0.00,0.0,WeatherDisplay:10.37,2013-05-10 07:41:00,
2013-05-10 00:46:00,49.2,46.1,30.18,SSE,147,1.0,2.0,89,0.00,CLR,,0.00,0.0,WeatherDisplay:10.37,2013-05-10 07:46:00,
2013-05-10 00:51:00,49.1,46.0,30.18,SSE,147,0.7,2.3,89,0.00,CLR,,0.00,0.0,WeatherDisplay:10.37,2013-05-10 07:51:00,
2013-05-10 00:56:00,49.0,45.9,30.18,SSE,147,0.4,1.2,89,0.00,CLR,,0.00,0.0,WeatherDisplay:10.37,2013-05-10 07:56:00,
2013-05-10 01:01:00,48.9,45.8,30.18,SSE,147,0.5,2.3,89,0.00,SCT,,0.00,0.0,WeatherDisplay:10.37,2013-05-10 08:01:00,
2013-05-10 01:06:00,48.9,46.1,30.18,SSE,147,1.0,2.3,90,0.00,SCT,,0.00,0.0,WeatherDisplay:10.37,2013-05-10 08:06:00,
2013-05-10 01:11:00,48.9,46.1,30.18,SSE,147,1.2,2.3,90,0.00,BKN,,0.00,0.0,WeatherDisplay:10.37,2013-05-10 08:11:00,
2013-05-10 01:16:00,49.0,46.2,30.18,SSE,147,0.1,2.3,90,0.00,BKN,,0.00,0.0,WeatherDisplay:10.37,2013-05-10 08:16:00,
2013-05-10 01:21:00,49.0,46.2,30.18,SSE,147,0.0,0.0,90,0.00,BKN,,0.00,0.0,WeatherDisplay:10.37,2013-05-10 08:21:00,
2013-05-10 01:26:00,49.0,46.2,30.18,SSE,147,0.2,1.0,90,0.00,BKN,,0.00,0.0,WeatherDisplay:10.37,2013-05-10 08:26:00,
2013-05-10 01:31:00,49.0,46.2,30.18,SSE,147,0.0,1.2,90,0.00,BKN,,0.00,0.0,WeatherDisplay:10.37,2013-05-10 08:31:00,
2013-05-10 01:36:00,49.1,46.6,30.18,SSE,148,0.7,2.3,91,0.00,BKN,,0.00,0.0,WeatherDisplay:10.37,2013-05-10 08:36:00,
2013-05-10 01:41:00,49.2,46.7,30.18,SSE,147,0.0,0.0,91,0.00,BKN,,0.00,0.0,WeatherDisplay:10.37,2013-05-10 08:41:00,
2013-05-10 01:46:00,49.2,46.7,30.18,SSE,147,1.4,2.3,91,0.00,BKN,,0.00,0.0,WeatherDisplay:10.37,2013-05-10 08:46:00,
2013-05-10 01:51:00,49.2,46.4,30.17,SSE,147,1.7,2.3,90,0.00,BKN,,0.00,0.0,WeatherDisplay:10.37,2013-05-10 08:51:00,
2013-05-10 01:56:00,49.1,46.0,30.17,SSE,147,1.8,3.5,89,0.00,BKN,,0.00,0.0,WeatherDisplay:10.37,2013-05-10 08:56:00,
2013-05-10 02:01:00,49.1,46.0,30.17,SSE,147,0.1,1.2,89,0.00,BKN,,0.00,0.0,WeatherDisplay:10.37,2013-05-10 09:01:00,
2013-05-10 02:06:00,49.1,46.0,30.17,SSE,147,0.0,0.0,89,0.00,BKN,,0.00,0.0,WeatherDisplay:10.37,2013-05-10 09:06:00,
2013-05-10 02:11:00,49.1,46.0,30.17,SSE,147,0.0,0.0,89,0.00,OVC,,0.00,0.0,WeatherDisplay:10.37,2013-05-10 09:11:00,
2013-05-10 02:16:00,49.1,46.0,30.16,SSE,147,1.0,2.3,89,0.00,OVC,,0.00,0.0,WeatherDisplay:10.37,2013-05-10 09:16:00,
2013-05-10 02:21:00,49.1,46.0,30.17,SSE,147,0.0,1.2,89,0.00,OVC,,0.00,0.0,WeatherDisplay:10.37,2013-05-10 09:21:00,
2013-05-10 02:26:00,49.1,46.0,30.16,SSE,147,1.2,2.3,89,0.00,OVC,,0.00,0.0,WeatherDisplay:10.37,2013-05-10 09:26:00,
2013-05-10 02:31:00,49.1,46.0,30.16,SSE,147,0.0,1.2,89,0.00,OVC,,0.00,0.0,WeatherDisplay:10.37,2013-05-10 09:31:00,
2013-05-10 02:36:00,49.0,45.9,30.16,SSE,147,0.0,0.0,89,0.00,OVC,,0.00,0.0,WeatherDisplay:10.37,2013-05-10 09:36:00,
2013-05-10 02:41:00,49.0,45.9,30.16,SSE,147,0.0,0.0,89,0.00,OVC,,0.00,0.0,WeatherDisplay:10.37,2013-05-10 09:41:00,
2013-05-10 02:46:00,49.0,45.9,30.16,SSE,147,0.0,0.0,89,0.00,OVC,,0.00,0.0,WeatherDisplay:10.37,2013-05-10 09:46:00,
2013-05-10 02:51:00,49.0,45.9,30.16,SSE,147,0.2,1.0,89,0.00,OVC,,0.00,0.0,WeatherDisplay:10.37,2013-05-10 09:51:00,
2013-05-10 02:56:00,49.0,45.9,30.15,SSE,147,0.0,0.0,89,0.00,OVC,,0.00,0.0,WeatherDisplay:10.37,2013-05-10 09:56:00,
2013-05-10 03:01:00,49.1,46.0,30.16,SSE,147,0.0,0.0,89,0.00,OVC,,0.00,0.0,WeatherDisplay:10.37,2013-05-10 10:01:00,
2013-05-10 03:06:00,49.1,46.3,30.16,SSE,147,0.0,0.0,90,0.00,OVC,,0.00,0.0,WeatherDisplay:10.37,2013-05-10 10:06:00,
2013-05-10 03:11:00,49.2,46.4,30.16,SSE,147,0.2,1.2,90,0.00,OVC,,0.00,0.0,WeatherDisplay:10.37,2013-05-10 10:11:00,
2013-05-10 03:16:00,49.2,46.4,30.16,SSE,147,0.0,0.0,90,0.00,OVC,,0.00,0.0,WeatherDisplay:10.37,2013-05-10 10:16:00,
2013-05-10 03:21:00,49.3,46.5,30.15,SSE,147,0.0,0.0,90,0.00,OVC,,0.00,0.0,WeatherDisplay:10.37,2013-05-10 10:21:00,
2013-05-10 03:26:00,49.4,46.6,30.15,SSE,147,0.0,0.0,90,0.00,OVC,,0.00,0.0,WeatherDisplay:10.37,2013-05-10 10:26:00,
2013-05-10 03:31:00,49.5,46.7,30.15,SSE,147,0.0,1.2,90,0.00,OVC,,0.00,0.0,WeatherDisplay:10.37,2013-05-10 10:31:00,
2013-05-10 03:36:00,49.5,46.7,30.15,SSE,147,0.3,1.2,90,0.00,OVC,,0.00,0.0,WeatherDisplay:10.37,2013-05-10 10:36:00,
2013-05-10 03:41:00,49.6,46.8,30.15,SSE,147,0.0,0.0,90,0.00,OVC,,0.00,0.0,WeatherDisplay:10.37,2013-05-10 10:41:00,
2013-05-10 03:46:00,49.7,46.9,30.14,SSE,147,0.6,2.3,90,0.00,OVC,,0.00,0.0,WeatherDisplay:10.37,2013-05-10 10:46:00,
2013-05-10 03:51:00,49.7,46.9,30.14,SSE,147,0.2,2.3,90,0.00,OVC,,0.00,0.0,WeatherDisplay:10.37,2013-05-10 10:51:00,
2013-05-10 03:56:00,49.7,46.9,30.14,SSE,147,0.0,0.0,90,0.00,OVC,,0.00,0.0,WeatherDisplay:10.37,2013-05-10 10:56:00,
2013-05-10 04:01:00,49.8,46.7,30.14,SSE,147,0.4,2.3,89,0.00,OVC,,0.00,0.0,WeatherDisplay:10.37,2013-05-10 11:01:00,
2013-05-10 04:06:00,49.8,47.0,30.14,SSE,147,0.1,2.3,90,0.00,OVC,,0.00,0.0,WeatherDisplay:10.37,2013-05-10 11:06:00,
2013-05-10 04:11:00,49.7,46.9,30.14,SSE,147,0.5,1.2,90,0.00,OVC,,0.00,0.0,WeatherDisplay:10.37,2013-05-10 11:11:00,
2013-05-10 04:16:00,49.8,47.0,30.14,SSE,147,0.0,0.0,90,0.00,OVC,,0.00,0.0,WeatherDisplay:10.37,2013-05-10 11:16:00,
2013-05-10 04:21:00,49.8,47.0,30.14,SSE,147,0.9,3.5,90,0.00,OVC,,0.00,0.0,WeatherDisplay:10.37,2013-05-10 11:21:00,
2013-05-10 04:26:00,49.8,47.0,30.14,SSE,147,1.2,2.3,90,0.00,OVC,,0.00,0.0,WeatherDisplay:10.37,2013-05-10 11:26:00,
2013-05-10 04:31:00,49.9,47.1,30.13,SE,146,0.1,1.2,90,0.00,OVC,,0.00,0.0,WeatherDisplay:10.37,2013-05-10 11:31:00,
2013-05-10 04:36:00,49.9,47.1,30.13,SSE,147,1.4,3.5,90,0.00,OVC,,0.00,0.0,WeatherDisplay:10.37,2013-05-10 11:36:00,
2013-05-10 04:41:00,49.9,46.8,30.13,SSE,147,0.0,1.2,89,0.00,OVC,,0.00,0.0,WeatherDisplay:10.37,2013-05-10 11:41:00,
2013-05-10 04:46:00,49.8,47.0,30.13,SSE,147,2.0,2.3,90,0.00,OVC,,0.00,0.0,WeatherDisplay:10.37,2013-05-10 11:46:00,
2013-05-10 04:51:00,49.7,46.9,30.12,SE,144,2.4,3.5,90,0.00,OVC,,0.00,0.0,WeatherDisplay:10.37,2013-05-10 11:51:00,
2013-05-10 04:56:00,49.7,46.9,30.13,SE,144,1.1,3.0,90,0.00,OVC,,0.00,0.0,WeatherDisplay:10.37,2013-05-10 11:56:00,
2013-05-10 05:01:00,49.6,46.8,30.12,SE,144,0.6,2.3,90,0.00,OVC,,0.00,0.0,WeatherDisplay:10.37,2013-05-10 12:01:00,
2013-05-10 05:06:00,49.6,46.8,30.12,SE,142,1.2,3.0,90,0.00,OVC,,0.00,0.0,WeatherDisplay:10.37,2013-05-10 12:06:00,
2013-05-10 05:11:00,49.6,46.8,30.12,SE,136,0.9,2.3,90,0.00,OVC,,0.00,0.0,WeatherDisplay:10.37,2013-05-10 12:11:00,
2013-05-10 05:16:00,49.6,46.8,30.12,SE,132,1.0,2.0,90,0.00,OVC,,0.00,0.0,WeatherDisplay:10.37,2013-05-10 12:16:00,
2013-05-10 05:21:00,49.6,46.8,30.12,SE,133,0.0,1.2,90,0.00,OVC,,0.00,0.0,WeatherDisplay:10.37,2013-05-10 12:21:00,
2013-05-10 05:26:00,49.7,46.9,30.13,SE,132,0.4,2.3,90,0.00,OVC,,0.00,0.0,WeatherDisplay:10.37,2013-05-10 12:26:00,
2013-05-10 05:31:00,49.7,46.9,30.13,ESE,110,1.0,3.5,90,0.00,OVC,,0.00,0.0,WeatherDisplay:10.37,2013-05-10 12:31:00,
2013-05-10 05:36:00,49.6,46.8,30.13,ESE,110,0.8,2.0,90,0.00,OVC,,0.00,0.0,WeatherDisplay:10.37,2013-05-10 12:36:00,
2013-05-10 05:41:00,49.7,46.9,30.13,ESE,110,0.1,1.2,90,0.00,OVC,,0.00,0.0,WeatherDisplay:10.37,2013-05-10 12:41:00,
2013-05-10 05:46:00,49.7,46.9,30.13,ESE,110,0.1,2.3,90,0.00,OVC,,0.00,0.0,WeatherDisplay:10.37,2013-05-10 12:46:00,
2013-05-10 05:51:00,49.7,46.9,30.13,ESE,110,0.0,0.0,90,0.00,OVC,,0.00,0.0,WeatherDisplay:10.37,2013-05-10 12:51:00,
2013-05-10 05:56:00,49.8,47.3,30.13,ESE,110,1.0,1.2,91,0.00,OVC,,0.00,0.0,WeatherDisplay:10.37,2013-05-10 12:56:00,
2013-05-10 06:01:00,49.8,47.0,30.14,ESE,110,2.4,3.5,90,0.00,OVC,,0.00,0.0,WeatherDisplay:10.37,2013-05-10 13:01:00,
2013-05-10 06:06:00,49.8,47.0,30.14,NE,44,2.8,3.5,90,0.00,OVC,,0.00,0.0,WeatherDisplay:10.37,2013-05-10 13:06:00,
2013-05-10 06:11:00,49.8,47.0,30.14,ENE,61,0.1,1.0,90,0.00,OVC,,0.00,0.0,WeatherDisplay:10.37,2013-05-10 13:11:00,
2013-05-10 06:16:00,49.8,47.0,30.14,ENE,61,0.5,0.0,90,0.00,OVC,,0.00,5.0,WeatherDisplay:10.37,2013-05-10 13:16:00,
2013-05-10 06:21:00,49.8,47.0,30.14,ENE,61,0.0,0.0,90,0.00,OVC,,0.00,7.0,WeatherDisplay:10.37,2013-05-10 13:21:00,
2013-05-10 06:26:00,49.8,47.0,30.15,ENE,61,0.8,1.2,90,0.00,OVC,,0.00,9.0,WeatherDisplay:10.37,2013-05-10 13:26:00,
2013-05-10 06:31:00,49.9,47.1,30.15,ENE,61,0.1,0.0,90,0.00,OVC,,0.00,11.0,WeatherDisplay:10.37,2013-05-10 13:31:00,
2013-05-10 06:36:00,49.9,47.1,30.15,ENE,61,0.2,1.2,90,0.00,OVC,,0.00,14.0,WeatherDisplay:10.37,2013-05-10 13:36:00,
2013-05-10 06:41:00,50.0,47.2,30.15,East,82,1.4,1.4,90,0.00,OVC,,0.00,18.0,WeatherDisplay:10.37,2013-05-10 13:41:00,
2013-05-10 06:46:00,50.1,47.3,30.15,East,82,0.2,2.3,90,0.00,OVC,,0.00,16.0,WeatherDisplay:10.37,2013-05-10 13:46:00,
2013-05-10 06:51:00,50.1,47.3,30.15,East,82,0.0,0.0,90,0.00,OVC,,0.00,25.0,WeatherDisplay:10.37,2013-05-10 13:51:00,
2013-05-10 06:56:00,50.2,47.4,30.15,East,81,0.0,1.2,90,0.00,OVC,,0.00,28.0,WeatherDisplay:10.37,2013-05-10 13:56:00,
2013-05-10 07:01:00,50.3,47.5,30.16,East,82,0.4,2.3,90,0.00,OVC,,0.00,32.0,WeatherDisplay:10.37,2013-05-10 14:01:00,
2013-05-10 07:06:00,50.4,47.6,30.15,East,82,0.1,2.3,90,0.00,OVC,,0.00,39.0,WeatherDisplay:10.37,2013-05-10 14:06:00,
2013-05-10 07:11:00,50.5,47.7,30.16,East,82,0.0,0.0,90,0.00,OVC,,0.00,37.0,WeatherDisplay:10.37,2013-05-10 14:11:00,
2013-05-10 07:16:00,50.6,47.8,30.16,East,82,0.0,1.2,90,0.00,OVC,,0.00,54.0,WeatherDisplay:10.37,2013-05-10 14:16:00,
2013-05-10 07:21:00,50.8,47.7,30.16,East,83,0.1,1.0,89,0.00,OVC,,0.00,65.0,WeatherDisplay:10.37,2013-05-10 14:21:00,
2013-05-10 07:26:00,50.9,47.8,30.16,East,82,0.0,1.2,89,0.00,OVC,,0.00,74.0,WeatherDisplay:10.37,2013-05-10 14:26:00,
2013-05-10 07:31:00,51.0,47.9,30.16,East,82,1.9,3.5,89,0.00,OVC,,0.00,67.0,WeatherDisplay:10.37,2013-05-10 14:31:00,
2013-05-10 07:36:00,51.2,48.1,30.17,East,82,0.6,2.3,89,0.00,OVC,,0.00,81.0,WeatherDisplay:10.37,2013-05-10 14:36:00,
2013-05-10 07:41:00,51.4,48.3,30.17,East,82,0.1,1.2,89,0.00,OVC,,0.00,88.0,WeatherDisplay:10.37,2013-05-10 14:41:00,
2013-05-10 07:46:00,51.5,48.1,30.17,East,82,0.0,1.2,88,0.00,OVC,,0.00,93.0,WeatherDisplay:10.37,2013-05-10 14:46:00,
2013-05-10 07:51:00,51.7,48.3,30.17,East,82,0.0,2.3,88,0.00,OVC,,0.00,88.0,WeatherDisplay:10.37,2013-05-10 14:51:00,
2013-05-10 07:56:00,51.9,48.2,30.17,East,82,0.4,1.2,87,0.00,OVC,,0.00,105.0,WeatherDisplay:10.37,2013-05-10 14:56:00,
2013-05-10 08:01:00,52.0,48.3,30.17,East,82,0.5,1.2,87,0.00,OVC,,0.00,107.0,WeatherDisplay:10.37,2013-05-10 15:01:00,
2013-05-10 08:06:00,52.1,48.3,30.17,East,82,0.0,0.0,87,0.00,OVC,,0.00,111.0,WeatherDisplay:10.37,2013-05-10 15:06:00,
2013-05-10 08:11:00,52.3,48.5,30.17,East,82,0.8,2.3,87,0.00,OVC,,0.00,128.0,WeatherDisplay:10.37,2013-05-10 15:11:00,
2013-05-10 08:16:00,52.5,48.7,30.17,East,82,1.4,2.3,87,0.00,OVC,,0.00,155.0,WeatherDisplay:10.37,2013-05-10 15:16:00,
2013-05-10 08:21:00,52.8,48.7,30.17,ESE,118,2.6,3.5,86,0.00,OVC,,0.00,139.0,WeatherDisplay:10.37,2013-05-10 15:21:00,
2013-05-10 08:26:00,53.0,48.9,30.17,ESE,108,1.6,3.5,86,0.00,OVC,,0.00,178.0,WeatherDisplay:10.37,2013-05-10 15:26:00,
2013-05-10 08:31:00,53.3,48.9,30.17,SE,124,3.3,6.0,85,0.00,OVC,,0.00,204.0,WeatherDisplay:10.37,2013-05-10 15:31:00,
2013-05-10 08:36:00,53.8,49.4,30.17,ENE,59,1.4,4.0,85,0.00,OVC,,0.00,202.0,WeatherDisplay:10.37,2013-05-10 15:36:00,
2013-05-10 08:41:00,54.4,49.7,30.17,ENE,73,4.4,7.0,84,0.00,OVC,,0.00,193.0,WeatherDisplay:10.37,2013-05-10 15:41:00,
2013-05-10 08:46:00,54.8,49.7,30.17,ENE,77,1.8,4.0,83,0.00,OVC,,0.00,199.0,WeatherDisplay:10.37,2013-05-10 15:46:00,
2013-05-10 08:51:00,55.3,49.9,30.17,ESE,111,3.3,4.6,82,0.00,OVC,,0.00,190.0,WeatherDisplay:10.37,2013-05-10 15:51:00,
2013-05-10 08:56:00,55.7,50.0,30.17,NE,41,2.3,5.8,81,0.00,OVC,,0.00,142.0,WeatherDisplay:10.37,2013-05-10 15:56:00,
2013-05-10 09:01:00,56.2,50.4,30.17,East,89,0.7,3.5,81,0.00,OVC,,0.00,83.0,WeatherDisplay:10.37,2013-05-10 16:01:00,
2013-05-10 09:06:00,56.9,50.5,30.17,East,80,1.8,3.5,79,0.00,OVC,,0.00,70.0,WeatherDisplay:10.37,2013-05-10 16:06:00,
2013-05-10 09:11:00,57.7,50.9,30.16,SSE,156,3.2,5.0,78,0.00,OVC,,0.00,69.0,WeatherDisplay:10.37,2013-05-10 16:11:00,
2013-05-10 09:16:00,58.4,50.9,30.17,NE,55,3.6,6.9,76,0.00,OVC,,0.00,67.0,WeatherDisplay:10.37,2013-05-10 16:16:00,
2013-05-10 09:21:00,59.1,51.2,30.17,NE,55,3.2,6.0,75,0.00,OVC,,0.00,67.0,WeatherDisplay:10.37,2013-05-10 16:21:00,
2013-05-10 09:26:00,59.6,51.3,30.17,SE,128,3.6,4.6,74,0.00,OVC,,0.00,67.0,WeatherDisplay:10.37,2013-05-10 16:26:00,
2013-05-10 09:31:00,60.1,51.0,30.16,East,99,1.6,3.5,72,0.00,OVC,,0.00,65.0,WeatherDisplay:10.37,2013-05-10 16:31:00,
2013-05-10 09:36:00,60.7,51.6,30.16,East,100,2.0,3.5,72,0.00,OVC,,0.00,65.0,WeatherDisplay:10.37,2013-05-10 16:36:00,
2013-05-10 09:41:00,61.2,52.1,30.16,SE,130,1.0,3.5,72,0.00,OVC,,0.00,65.0,WeatherDisplay:10.37,2013-05-10 16:41:00,
2013-05-10 09:46:00,61.9,52.0,30.16,ENE,59,3.8,4.6,70,0.00,OVC,,0.00,65.0,WeatherDisplay:10.37,2013-05-10 16:46:00,
2013-05-10 09:51:00,62.5,52.2,30.16,NNE,32,1.2,3.5,69,0.00,OVC,,0.00,65.0,WeatherDisplay:10.37,2013-05-10 16:51:00,
2013-05-10 09:56:00,63.2,52.9,30.17,North,10,2.1,3.5,69,0.00,OVC,,0.00,65.0,WeatherDisplay:10.37,2013-05-10 16:56:00,
2013-05-10 10:01:00,63.9,52.7,30.16,NE,49,2.8,4.6,67,0.00,FEW,,0.00,67.0,WeatherDisplay:10.37,2013-05-10 17:01:00,
2013-05-10 10:06:00,64.4,52.8,30.16,NE,35,2.6,4.6,66,0.00,FEW,,0.00,67.0,WeatherDisplay:10.37,2013-05-10 17:06:00,
2013-05-10 10:11:00,64.5,52.9,30.16,NE,39,3.8,4.6,66,0.00,FEW,,0.00,70.0,WeatherDisplay:10.37,2013-05-10 17:11:00,
2013-05-10 10:16:00,65.0,52.9,30.16,NNE,28,3.5,4.6,65,0.00,FEW,,0.00,120.0,WeatherDisplay:10.37,2013-05-10 17:16:00,
2013-05-10 10:21:00,65.6,53.1,30.17,NNE,30,3.1,3.5,64,0.00,FEW,,0.00,271.0,WeatherDisplay:10.37,2013-05-10 17:21:00,
2013-05-10 10:26:00,66.2,53.2,30.17,NNW,334,1.0,3.5,63,0.00,FEW,,0.00,496.0,WeatherDisplay:10.37,2013-05-10 17:26:00,
2013-05-10 10:31:00,66.9,53.0,30.17,NE,35,0.7,3.5,61,0.00,FEW,,0.00,689.0,WeatherDisplay:10.37,2013-05-10 17:31:00,
2013-05-10 10:36:00,67.4,53.5,30.17,NW,316,2.6,3.0,61,0.00,FEW,,0.00,786.0,WeatherDisplay:10.37,2013-05-10 17:36:00,
2013-05-10 10:41:00,67.9,53.5,30.17,NNE,20,0.9,3.5,60,0.00,FEW,,0.00,802.0,WeatherDisplay:10.37,2013-05-10 17:41:00,
2013-05-10 10:46:00,68.3,53.4,30.17,NNE,28,2.5,4.6,59,0.00,FEW,,0.00,807.0,WeatherDisplay:10.37,2013-05-10 17:46:00,
2013-05-10 10:51:00,68.7,53.8,30.17,NW,305,2.6,3.5,59,0.00,FEW,,0.00,819.0,WeatherDisplay:10.37,2013-05-10 17:51:00,
2013-05-10 10:56:00,69.2,53.8,30.17,NW,316,1.2,4.6,58,0.00,FEW,,0.00,831.0,WeatherDisplay:10.37,2013-05-10 17:56:00,
2013-05-10 11:01:00,69.7,54.3,30.17,NW,322,3.8,4.0,58,0.00,CLR,,0.00,838.0,WeatherDisplay:10.37,2013-05-10 18:01:00,
2013-05-10 11:06:00,70.1,53.7,30.17,North,350,0.4,3.5,56,0.00,CLR,,0.00,851.0,WeatherDisplay:10.37,2013-05-10 18:06:00,
2013-05-10 11:11:00,70.6,54.1,30.17,NW,322,2.8,6.9,56,0.00,CLR,,0.00,858.0,WeatherDisplay:10.37,2013-05-10 18:11:00,
2013-05-10 11:16:00,70.5,54.0,30.17,NW,309,2.0,8.1,56,0.00,CLR,,0.00,805.0,WeatherDisplay:10.37,2013-05-10 18:16:00,
2013-05-10 11:21:00,70.7,54.7,30.17,NW,314,1.3,7.0,57,0.00,CLR,,0.00,165.0,WeatherDisplay:10.37,2013-05-10 18:21:00,
2013-05-10 11:26:00,71.3,54.3,30.17,North,351,1.0,3.5,55,0.00,CLR,,0.00,884.0,WeatherDisplay:10.37,2013-05-10 18:26:00,
2013-05-10 11:31:00,71.7,54.2,30.17,North,353,0.7,2.3,54,0.00,CLR,,0.00,895.0,WeatherDisplay:10.37,2013-05-10 18:31:00,
2013-05-10 11:36:00,72.0,54.4,30.17,NE,36,2.7,4.6,54,0.00,CLR,,0.00,904.0,WeatherDisplay:10.37,2013-05-10 18:36:00,
2013-05-10 11:41:00,72.1,54.5,30.17,NNW,342,2.2,3.5,54,0.00,CLR,,0.00,909.0,WeatherDisplay:10.37,2013-05-10 18:41:00,
2013-05-10 11:46:00,72.3,54.2,30.17,NE,35,3.9,6.0,53,0.00,CLR,,0.00,914.0,WeatherDisplay:10.37,2013-05-10 18:46:00,
2013-05-10 11:51:00,72.3,54.7,30.17,NNW,348,2.7,4.0,54,0.00,CLR,,0.00,919.0,WeatherDisplay:10.37,2013-05-10 18:51:00,
2013-05-10 11:56:00,72.4,54.8,30.17,NNE,22,3.8,5.0,54,0.00,CLR,,0.00,928.0,WeatherDisplay:10.37,2013-05-10 18:56:00,
2013-05-10 12:01:00,72.5,54.4,30.17,ENE,58,1.2,5.8,53,0.00,CLR,,0.00,928.0,WeatherDisplay:10.37,2013-05-10 19:01:00,
2013-05-10 12:06:00,72.5,54.9,30.17,NNE,29,4.6,5.8,54,0.00,CLR,,0.00,939.0,WeatherDisplay:10.37,2013-05-10 19:06:00,
2013-05-10 12:11:00,72.6,54.5,30.17,NNE,29,2.2,4.6,53,0.00,CLR,,0.00,942.0,WeatherDisplay:10.37,2013-05-10 19:11:00,
2013-05-10 12:16:00,72.7,54.6,30.17,NNE,30,4.8,5.0,53,0.00,CLR,,0.00,949.0,WeatherDisplay:10.37,2013-05-10 19:16:00,
2013-05-10 12:21:00,72.6,54.5,30.17,NNE,18,2.2,5.8,53,0.00,CLR,,0.00,954.0,WeatherDisplay:10.37,2013-05-10 19:21:00,
2013-05-10 12:26:00,72.5,54.9,30.17,North,354,3.0,3.5,54,0.00,CLR,,0.00,956.0,WeatherDisplay:10.37,2013-05-10 19:26:00,
2013-05-10 12:31:00,72.6,55.0,30.17,NE,42,2.0,5.8,54,0.00,CLR,,0.00,962.0,WeatherDisplay:10.37,2013-05-10 19:31:00,
2013-05-10 12:36:00,72.8,55.2,30.16,NNE,30,3.9,3.9,54,0.00,CLR,,0.00,962.0,WeatherDisplay:10.37,2013-05-10 19:36:00,
2013-05-10 12:41:00,72.9,54.8,30.16,North,356,0.9,5.8,53,0.00,CLR,,0.00,963.0,WeatherDisplay:10.37,2013-05-10 19:41:00,
2013-05-10 12:46:00,73.0,54.9,30.16,NNE,16,2.9,4.6,53,0.00,CLR,,0.00,967.0,WeatherDisplay:10.37,2013-05-10 19:46:00,
2013-05-10 12:52:00,73.1,55.5,30.16,NE,56,3.8,7.0,54,0.00,CLR,,0.00,972.0,WeatherDisplay:10.37,2013-05-10 19:52:00,
2013-05-10 12:57:00,73.1,55.5,30.16,WNW,284,2.8,4.6,54,0.00,CLR,,0.00,970.0,WeatherDisplay:10.37,2013-05-10 19:57:00,
2013-05-10 13:02:00,73.0,55.4,30.16,North,11,2.5,4.6,54,0.00,FEW,,0.00,969.0,WeatherDisplay:10.37,2013-05-10 20:02:00,
2013-05-10 13:07:00,73.3,55.6,30.16,NNW,336,1.6,3.5,54,0.00,FEW,,0.00,969.0,WeatherDisplay:10.37,2013-05-10 20:07:00,
2013-05-10 13:12:00,73.6,55.4,30.16,North,350,3.8,6.9,53,0.00,FEW,,0.00,967.0,WeatherDisplay:10.37,2013-05-10 20:12:00,
2013-05-10 13:17:00,73.9,55.7,30.16,NW,323,4.6,8.1,53,0.00,FEW,,0.00,969.0,WeatherDisplay:10.37,2013-05-10 20:17:00,
2013-05-10 13:22:00,74.2,56.0,30.16,North,354,1.0,4.0,53,0.00,FEW,,0.00,962.0,WeatherDisplay:10.37,2013-05-10 20:22:00,
2013-05-10 13:27:00,74.5,55.7,30.16,North,360,3.3,4.6,52,0.00,FEW,,0.00,967.0,WeatherDisplay:10.37,2013-05-10 20:27:00,
2013-05-10 13:32:00,74.9,56.1,30.15,North,360,2.7,5.0,52,0.00,FEW,,0.00,962.0,WeatherDisplay:10.37,2013-05-10 20:32:00,
2013-05-10 13:37:00,75.0,56.2,30.15,NNW,330,2.8,5.8,52,0.00,FEW,,0.00,962.0,WeatherDisplay:10.37,2013-05-10 20:37:00,
2013-05-10 13:42:00,74.6,55.8,30.15,NE,39,4.2,6.9,52,0.00,FEW,,0.00,953.0,WeatherDisplay:10.37,2013-05-10 20:42:00,
2013-05-10 13:47:00,74.4,55.6,30.15,NE,35,5.1,8.0,52,0.00,FEW,,0.00,949.0,WeatherDisplay:10.37,2013-05-10 20:47:00,
2013-05-10 13:52:00,74.5,55.7,30.15,NNE,27,5.6,8.1,52,0.00,FEW,,0.00,946.0,WeatherDisplay:10.37,2013-05-10 20:52:00,
2013-05-10 13:57:00,74.5,56.2,30.15,North,358,2.1,7.0,53,0.00,FEW,,0.00,942.0,WeatherDisplay:10.37,2013-05-10 20:57:00,
2013-05-10 14:02:00,74.5,55.7,30.15,North,352,2.4,4.6,52,0.00,CLR,,0.00,940.0,WeatherDisplay:10.37,2013-05-10 21:02:00,
2013-05-10 14:07:00,74.4,55.6,30.15,NE,56,5.9,8.0,52,0.00,CLR,,0.00,935.0,WeatherDisplay:10.37,2013-05-10 21:07:00,
2013-05-10 14:12:00,74.6,55.8,30.15,NNE,30,3.8,7.0,52,0.00,CLR,,0.00,925.0,WeatherDisplay:10.37,2013-05-10 21:12:00,
2013-05-10 14:17:00,74.7,56.4,30.15,NNE,23,3.8,5.8,53,0.00,CLR,,0.00,919.0,WeatherDisplay:10.37,2013-05-10 21:17:00,
2013-05-10 14:22:00,74.8,56.0,30.15,NE,46,0.4,3.5,52,0.00,CLR,,0.00,921.0,WeatherDisplay:10.37,2013-05-10 21:22:00,
2013-05-10 14:27:00,74.9,56.1,30.15,North,359,3.2,5.0,52,0.00,CLR,,0.00,904.0,WeatherDisplay:10.37,2013-05-10 21:27:00,
2013-05-10 14:32:00,74.8,56.0,30.15,NNE,14,2.1,3.5,52,0.00,CLR,,0.00,898.0,WeatherDisplay:10.37,2013-05-10 21:32:00,
2013-05-10 14:37:00,74.9,56.1,30.15,North,358,3.2,4.6,52,0.00,CLR,,0.00,888.0,WeatherDisplay:10.37,2013-05-10 21:37:00,
2013-05-10 14:42:00,75.1,56.3,30.15,NW,317,2.2,3.5,52,0.00,CLR,,0.00,882.0,WeatherDisplay:10.37,2013-05-10 21:42:00,
2013-05-10 14:47:00,75.1,56.3,30.15,NE,39,1.7,4.0,52,0.00,CLR,,0.00,875.0,WeatherDisplay:10.37,2013-05-10 21:47:00,
2013-05-10 14:52:00,75.1,56.3,30.14,NW,321,1.8,2.3,52,0.00,CLR,,0.00,867.0,WeatherDisplay:10.37,2013-05-10 21:52:00,
2013-05-10 14:58:00,75.2,56.4,30.14,NW,320,2.8,4.6,52,0.00,CLR,,0.00,849.0,WeatherDisplay:10.37,2013-05-10 21:58:00,
2013-05-10 14:59:00,75.2,56.4,30.15,NNE,29,2.1,3.5,52,0.00,CLR,,0.00,851.0,WeatherDisplay:10.37,2013-05-10 21:59:00,
2013-05-10 15:04:00,75.3,56.5,30.14,NNE,29,2.5,3.5,52,0.00,CLR,,0.00,846.0,WeatherDisplay:10.37,2013-05-10 22:04:00,
2013-05-10 15:09:00,75.6,56.2,30.14,North,6,4.1,6.9,51,0.00,CLR,,0.00,840.0,WeatherDisplay:10.37,2013-05-10 22:09:00,
2013-05-10 15:14:00,75.8,56.4,30.14,NNE,32,3.8,6.0,51,0.00,CLR,,0.00,831.0,WeatherDisplay:10.37,2013-05-10 22:14:00,
2013-05-10 15:19:00,75.9,56.5,30.14,NW,320,2.5,5.8,51,0.00,CLR,,0.00,814.0,WeatherDisplay:10.37,2013-05-10 22:19:00,
2013-05-10 15:24:00,76.0,56.6,30.14,North,352,1.8,4.6,51,0.00,CLR,,0.00,807.0,WeatherDisplay:10.37,2013-05-10 22:24:00,
2013-05-10 15:29:00,76.2,56.7,30.14,NNE,12,3.2,5.8,51,0.00,CLR,,0.00,789.0,WeatherDisplay:10.37,2013-05-10 22:29:00,
2013-05-10 15:34:00,76.3,56.8,30.13,NW,312,1.9,3.5,51,0.00,CLR,,0.00,788.0,WeatherDisplay:10.37,2013-05-10 22:34:00,
2013-05-10 15:39:00,76.4,56.4,30.13,North,353,2.0,3.5,50,0.00,CLR,,0.00,779.0,WeatherDisplay:10.37,2013-05-10 22:39:00,
2013-05-10 15:44:00,76.6,56.6,30.13,North,353,3.0,6.0,50,0.00,CLR,,0.00,766.0,WeatherDisplay:10.37,2013-05-10 22:44:00,
2013-05-10 15:49:00,76.5,56.5,30.13,NW,314,1.8,4.0,50,0.00,CLR,,0.00,754.0,WeatherDisplay:10.37,2013-05-10 22:49:00,
2013-05-10 15:54:00,76.6,56.6,30.13,North,6,1.1,2.3,50,0.00,CLR,,0.00,742.0,WeatherDisplay:10.37,2013-05-10 22:54:00,
2013-05-10 15:59:00,76.8,56.8,30.13,NNW,337,1.9,3.5,50,0.00,CLR,,0.00,733.0,WeatherDisplay:10.37,2013-05-10 22:59:00,
2013-05-10 16:04:00,77.0,56.9,30.13,NNW,329,2.2,4.6,50,0.00,CLR,,0.00,719.0,WeatherDisplay:10.37,2013-05-10 23:04:00,
2013-05-10 16:09:00,77.3,57.2,30.13,NW,320,1.0,3.0,50,0.00,CLR,,0.00,700.0,WeatherDisplay:10.37,2013-05-10 23:09:00,
2013-05-10 16:14:00,77.6,56.9,30.12,NNW,330,1.8,3.5,49,0.00,CLR,,0.00,686.0,WeatherDisplay:10.37,2013-05-10 23:14:00,
2013-05-10 16:19:00,77.5,56.8,30.12,NW,313,1.4,3.5,49,0.00,CLR,,0.00,675.0,WeatherDisplay:10.37,2013-05-10 23:19:00,
2013-05-10 16:24:00,77.3,56.1,30.12,NE,34,3.6,5.8,48,0.00,CLR,,0.00,663.0,WeatherDisplay:10.37,2013-05-10 23:24:00,
2013-05-10 16:29:00,76.9,56.3,30.12,NNE,24,1.5,3.5,49,0.00,CLR,,0.00,647.0,WeatherDisplay:10.37,2013-05-10 23:29:00,
2013-05-10 16:34:00,76.9,56.3,30.12,North,358,1.7,3.5,49,0.00,CLR,,0.00,629.0,WeatherDisplay:10.37,2013-05-10 23:34:00,
2013-05-10 16:39:00,76.6,56.0,30.12,NNE,26,3.9,6.9,49,0.00,CLR,,0.00,613.0,WeatherDisplay:10.37,2013-05-10 23:39:00,
2013-05-10 16:44:00,76.2,56.2,30.12,NE,36,1.0,3.5,50,0.00,CLR,,0.00,605.0,WeatherDisplay:10.37,2013-05-10 23:44:00,
2013-05-10 16:49:00,76.0,56.0,30.11,NNE,27,3.6,5.0,50,0.00,CLR,,0.00,587.0,WeatherDisplay:10.37,2013-05-10 23:49:00,
2013-05-10 16:54:00,75.7,55.7,30.11,NNW,348,2.0,3.5,50,0.00,CLR,,0.00,570.0,WeatherDisplay:10.37,2013-05-10 23:54:00,
2013-05-10 16:59:00,75.4,55.5,30.11,NNE,21,3.9,4.6,50,0.00,CLR,,0.00,548.0,WeatherDisplay:10.37,2013-05-10 23:59:00,
2013-05-10 17:04:00,75.2,55.8,30.11,NE,42,3.2,5.8,51,0.00,CLR,,0.00,536.0,WeatherDisplay:10.37,2013-05-11 00:04:00,
2013-05-10 17:09:00,75.0,55.6,30.11,ENE,58,2.5,5.8,51,0.00,CLR,,0.00,522.0,WeatherDisplay:10.37,2013-05-11 00:09:00,
2013-05-10 17:14:00,74.9,55.6,30.11,North,4,3.3,4.6,51,0.00,CLR,,0.00,508.0,WeatherDisplay:10.37,2013-05-11 00:14:00,
2013-05-10 17:19:00,75.0,56.2,30.11,North,353,0.8,2.3,52,0.00,CLR,,0.00,492.0,WeatherDisplay:10.37,2013-05-11 00:19:00,
2013-05-10 17:24:00,75.0,55.6,30.12,NE,51,2.6,4.6,51,0.00,CLR,,0.00,475.0,WeatherDisplay:10.37,2013-05-11 00:24:00,
2013-05-10 17:29:00,74.9,55.6,30.12,NNE,30,1.1,3.5,51,0.00,CLR,,0.00,455.0,WeatherDisplay:10.37,2013-05-11 00:29:00,
2013-05-10 17:34:00,74.3,55.5,30.11,ENE,60,4.1,5.8,52,0.00,CLR,,0.00,438.0,WeatherDisplay:10.37,2013-05-11 00:34:00,
2013-05-10 17:39:00,73.6,54.9,30.11,North,358,2.5,3.5,52,0.00,CLR,,0.00,422.0,WeatherDisplay:10.37,2013-05-11 00:39:00,
2013-05-10 17:44:00,73.5,55.3,30.11,NE,49,0.6,2.0,53,0.00,CLR,,0.00,404.0,WeatherDisplay:10.37,2013-05-11 00:44:00,
2013-05-10 17:49:00,73.7,55.5,30.11,NE,54,3.3,4.6,53,0.00,CLR,,0.00,394.0,WeatherDisplay:10.37,2013-05-11 00:49:00,
2013-05-10 17:54:00,73.8,55.1,30.11,NNW,328,2.0,3.5,52,0.00,CLR,,0.00,373.0,WeatherDisplay:10.37,2013-05-11 00:54:00,
2013-05-10 17:59:00,74.0,55.3,30.11,NNE,14,2.6,3.5,52,0.00,CLR,,0.00,357.0,WeatherDisplay:10.37,2013-05-11 00:59:00,
2013-05-10 18:04:00,74.1,55.3,30.11,North,349,2.4,5.8,52,0.00,CLR,,0.00,341.0,WeatherDisplay:10.37,2013-05-11 01:04:00,
2013-05-10 18:09:00,74.0,54.7,30.12,NNE,28,3.5,5.0,51,0.00,CLR,,0.00,323.0,WeatherDisplay:10.37,2013-05-11 01:09:00,
2013-05-10 18:14:00,73.9,54.6,30.11,NNE,20,2.5,3.5,51,0.00,CLR,,0.00,308.0,WeatherDisplay:10.37,2013-05-11 01:14:00,
2013-05-10 18:19:00,73.8,55.1,30.12,NE,40,2.0,3.5,52,0.00,CLR,,0.00,290.0,WeatherDisplay:10.37,2013-05-11 01:19:00,
2013-05-10 18:24:00,73.4,54.7,30.12,North,2,2.5,4.0,52,0.00,CLR,,0.00,276.0,WeatherDisplay:10.37,2013-05-11 01:24:00,
2013-05-10 18:29:00,73.1,54.4,30.11,North,360,1.4,3.5,52,0.00,CLR,,0.00,258.0,WeatherDisplay:10.37,2013-05-11 01:29:00,
2013-05-10 18:34:00,73.2,54.5,30.12,North,6,2.3,3.5,52,0.00,CLR,,0.00,239.0,WeatherDisplay:10.37,2013-05-11 01:34:00,
2013-05-10 18:39:00,73.1,54.9,30.12,NNE,28,5.3,5.8,53,0.00,CLR,,0.00,223.0,WeatherDisplay:10.37,2013-05-11 01:39:00,
2013-05-10 18:44:00,72.2,54.6,30.12,NNE,33,4.3,5.0,54,0.00,CLR,,0.00,202.0,WeatherDisplay:10.37,2013-05-11 01:44:00,
2013-05-10 18:49:00,71.0,54.5,30.12,NNE,23,3.3,5.8,56,0.00,CLR,,0.00,183.0,WeatherDisplay:10.37,2013-05-11 01:49:00,
2013-05-10 18:54:00,70.4,54.4,30.12,NE,45,3.4,6.0,57,0.00,CLR,,0.00,165.0,WeatherDisplay:10.37,2013-05-11 01:54:00,
2013-05-10 18:59:00,69.5,54.1,30.12,NE,36,2.1,3.5,58,0.00,CLR,,0.00,146.0,WeatherDisplay:10.37,2013-05-11 01:59:00,
2013-05-10 19:04:00,69.2,54.3,30.12,NE,46,2.6,4.6,59,0.00,CLR,,0.00,127.0,WeatherDisplay:10.37,2013-05-11 02:04:00,
2013-05-10 19:09:00,69.0,54.5,30.12,ENE,72,2.3,4.0,60,0.00,CLR,,0.00,107.0,WeatherDisplay:10.37,2013-05-11 02:09:00,
2013-05-10 19:14:00,68.7,54.3,30.12,North,357,2.4,3.5,60,0.00,CLR,,0.00,90.0,WeatherDisplay:10.37,2013-05-11 02:14:00,
2013-05-10 19:19:00,68.3,53.9,30.12,ENE,74,2.5,3.5,60,0.00,CLR,,0.00,76.0,WeatherDisplay:10.37,2013-05-11 02:19:00,
2013-05-10 19:24:00,67.3,53.8,30.12,ENE,73,1.0,2.3,62,0.00,CLR,,0.00,60.0,WeatherDisplay:10.37,2013-05-11 02:24:00,
2013-05-10 19:29:00,66.6,53.6,30.12,ENE,62,2.8,4.6,63,0.00,CLR,,0.00,47.0,WeatherDisplay:10.37,2013-05-11 02:29:00,
2013-05-10 19:34:00,65.9,53.4,30.13,NE,51,2.7,3.5,64,0.00,CLR,,0.00,25.0,WeatherDisplay:10.37,2013-05-11 02:34:00,
2013-05-10 19:39:00,65.3,53.6,30.13,NE,45,3.9,4.6,66,0.00,CLR,,0.00,21.0,WeatherDisplay:10.37,2013-05-11 02:39:00,
2013-05-10 19:44:00,64.6,53.4,30.13,NE,53,1.6,3.5,67,0.00,CLR,,0.00,18.0,WeatherDisplay:10.37,2013-05-11 02:44:00,
2013-05-10 19:49:00,64.0,53.2,30.13,ENE,62,2.5,3.5,68,0.00,CLR,,0.00,14.0,WeatherDisplay:10.37,2013-05-11 02:49:00,
2013-05-10 19:54:00,63.1,53.2,30.13,ENE,78,2.2,3.5,70,0.00,CLR,,0.00,11.0,WeatherDisplay:10.37,2013-05-11 02:54:00,
2013-05-10 19:59:00,62.0,52.9,30.13,ENE,78,3.8,4.6,72,0.00,CLR,,0.00,7.0,WeatherDisplay:10.37,2013-05-11 02:59:00,
2013-05-10 20:04:00,61.1,52.7,30.13,East,81,2.5,4.6,74,0.00,SCT,,0.00,5.0,WeatherDisplay:10.37,2013-05-11 03:04:00,
2013-05-10 20:09:00,60.1,52.5,30.14,East,101,4.0,5.0,76,0.00,SCT,,0.00,0.0,WeatherDisplay:10.37,2013-05-11 03:09:00,
2013-05-10 20:14:00,59.2,52.3,30.14,ENE,76,1.7,4.6,78,0.00,SCT,,0.00,0.0,WeatherDisplay:10.37,2013-05-11 03:14:00,
2013-05-10 20:19:00,58.6,52.1,30.14,East,97,0.5,2.3,79,0.00,SCT,,0.00,0.0,WeatherDisplay:10.37,2013-05-11 03:19:00,
2013-05-10 20:24:00,58.3,52.2,30.14,ENE,74,3.9,4.6,80,0.00,SCT,,0.00,0.0,WeatherDisplay:10.37,2013-05-11 03:24:00,
2013-05-10 20:29:00,57.9,51.8,30.14,East,91,0.2,1.2,80,0.00,SCT,,0.00,0.0,WeatherDisplay:10.37,2013-05-11 03:29:00,
2013-05-10 20:34:00,57.6,51.8,30.14,ESE,106,3.6,4.6,81,0.00,SCT,,0.00,0.0,WeatherDisplay:10.37,2013-05-11 03:34:00,
2013-05-10 20:39:00,57.2,51.8,30.14,East,89,0.3,3.5,82,0.00,SCT,,0.00,0.0,WeatherDisplay:10.37,2013-05-11 03:39:00,
2013-05-10 20:44:00,56.9,51.5,30.14,East,86,1.7,5.0,82,0.00,SCT,,0.00,0.0,WeatherDisplay:10.37,2013-05-11 03:44:00,
2013-05-10 20:49:00,56.6,51.5,30.14,East,97,3.5,6.9,83,0.00,SCT,,0.00,0.0,WeatherDisplay:10.37,2013-05-11 03:49:00,
2013-05-10 20:54:00,56.3,51.5,30.14,ENE,78,1.9,4.6,84,0.00,SCT,,0.00,0.0,WeatherDisplay:10.37,2013-05-11 03:54:00,
2013-05-10 20:59:00,56.0,51.2,30.14,East,99,0.7,2.3,84,0.00,SCT,,0.00,0.0,WeatherDisplay:10.37,2013-05-11 03:59:00,
2013-05-10 21:01:00,55.9,51.1,30.14,ESE,107,2.5,3.5,84,0.00,SCT,,0.00,0.0,WeatherDisplay:10.37,2013-05-11 04:01:00,
2013-05-10 21:06:00,55.6,51.2,30.15,East,84,2.3,3.5,85,0.00,FEW,,0.00,0.0,WeatherDisplay:10.37,2013-05-11 04:06:00,
2013-05-10 21:11:00,55.3,51.2,30.15,ENE,78,3.2,4.6,86,0.00,FEW,,0.00,0.0,WeatherDisplay:10.37,2013-05-11 04:11:00,
2013-05-10 21:16:00,55.1,51.0,30.15,East,94,2.4,5.0,86,0.00,FEW,,0.00,0.0,WeatherDisplay:10.37,2013-05-11 04:16:00,
2013-05-10 21:21:00,54.9,51.1,30.15,East,87,3.3,4.6,87,0.00,FEW,,0.00,0.0,WeatherDisplay:10.37,2013-05-11 04:21:00,
2013-05-10 21:26:00,54.8,51.0,30.15,ENE,71,2.1,3.0,87,0.00,FEW,,0.00,0.0,WeatherDisplay:10.37,2013-05-11 04:26:00,
2013-05-10 21:31:00,54.7,50.9,30.15,East,99,1.9,3.5,87,0.00,FEW,,0.00,0.0,WeatherDisplay:10.37,2013-05-11 04:31:00,
2013-05-10 21:36:00,54.6,50.8,30.15,ESE,114,2.0,3.5,87,0.00,FEW,,0.00,0.0,WeatherDisplay:10.37,2013-05-11 04:36:00,
2013-05-10 21:41:00,54.5,51.0,30.15,ESE,121,2.6,3.5,88,0.00,FEW,,0.00,0.0,WeatherDisplay:10.37,2013-05-11 04:41:00,
2013-05-10 21:46:00,54.5,51.0,30.15,East,99,0.8,2.3,88,0.00,FEW,,0.00,0.0,WeatherDisplay:10.37,2013-05-11 04:46:00,
2013-05-10 21:51:00,54.4,50.9,30.14,ESE,113,2.4,3.0,88,0.00,FEW,,0.00,0.0,WeatherDisplay:10.37,2013-05-11 04:51:00,
2013-05-10 21:56:00,54.3,51.1,30.14,East,97,2.9,3.5,89,0.00,FEW,,0.00,0.0,WeatherDisplay:10.37,2013-05-11 04:56:00,
2013-05-10 22:01:00,54.2,51.0,30.15,East,96,1.6,3.0,89,0.00,CLR,,0.00,0.0,WeatherDisplay:10.37,2013-05-11 05:01:00,
2013-05-10 22:06:00,54.1,51.2,30.15,East,82,2.4,3.5,90,0.00,CLR,,0.00,0.0,WeatherDisplay:10.37,2013-05-11 05:06:00,
2013-05-10 22:11:00,54.1,51.2,30.15,ENE,72,2.2,3.5,90,0.00,CLR,,0.00,0.0,WeatherDisplay:10.37,2013-05-11 05:11:00,
2013-05-10 22:16:00,54.0,51.1,30.15,East,86,2.5,3.5,90,0.00,CLR,,0.00,0.0,WeatherDisplay:10.37,2013-05-11 05:16:00,
2013-05-10 22:21:00,54.0,51.1,30.15,ENE,70,4.0,4.6,90,0.00,CLR,,0.00,0.0,WeatherDisplay:10.37,2013-05-11 05:21:00,
2013-05-10 22:26:00,54.0,51.1,30.15,East,89,2.5,3.5,90,0.00,CLR,,0.00,0.0,WeatherDisplay:10.37,2013-05-11 05:26:00,
2013-05-10 22:31:00,54.0,51.1,30.15,ESE,103,1.1,4.6,90,0.00,CLR,,0.00,0.0,WeatherDisplay:10.37,2013-05-11 05:31:00,
2013-05-10 22:36:00,54.0,51.1,30.14,East,100,3.0,5.8,90,0.00,CLR,,0.00,0.0,WeatherDisplay:10.37,2013-05-11 05:36:00,
2013-05-10 22:41:00,53.9,51.3,30.14,East,86,1.9,3.5,91,0.00,CLR,,0.00,0.0,WeatherDisplay:10.37,2013-05-11 05:41:00,
2013-05-10 22:46:00,53.8,50.9,30.14,East,93,1.6,3.5,90,0.00,CLR,,0.00,0.0,WeatherDisplay:10.37,2013-05-11 05:46:00,
2013-05-10 22:51:00,53.7,51.1,30.14,East,97,0.6,2.0,91,0.00,SCT,,0.00,0.0,WeatherDisplay:10.37,2013-05-11 05:51:00,
2013-05-10 22:56:00,53.7,51.1,30.14,East,97,0.4,2.3,91,0.00,SCT,,0.00,0.0,WeatherDisplay:10.37,2013-05-11 05:56:00,
2013-05-10 23:01:00,53.7,51.1,30.14,East,97,0.2,2.3,91,0.00,BKN,,0.00,0.0,WeatherDisplay:10.37,2013-05-11 06:01:00,
2013-05-10 23:06:00,53.7,51.1,30.14,East,97,0.6,2.3,91,0.00,BKN,,0.00,0.0,WeatherDisplay:10.37,2013-05-11 06:06:00,
2013-05-10 23:11:00,53.7,51.1,30.14,East,97,1.8,2.0,91,0.00,BKN,,0.00,0.0,WeatherDisplay:10.37,2013-05-11 06:11:00,
2013-05-10 23:16:00,53.7,51.1,30.14,East,98,1.0,3.5,91,0.00,BKN,,0.00,0.0,WeatherDisplay:10.37,2013-05-11 06:16:00,
2013-05-10 23:21:00,53.7,51.1,30.14,SE,125,0.3,3.5,91,0.00,BKN,,0.00,0.0,WeatherDisplay:10.37,2013-05-11 06:21:00,
2013-05-10 23:26:00,53.6,51.0,30.14,SE,126,0.8,2.3,91,0.00,BKN,,0.00,0.0,WeatherDisplay:10.37,2013-05-11 06:26:00,
2013-05-10 23:31:00,53.6,51.0,30.14,ENE,64,1.4,3.5,91,0.00,BKN,,0.00,0.0,WeatherDisplay:10.37,2013-05-11 06:31:00,
2013-05-10 23:36:00,53.7,51.1,30.14,ENE,74,1.8,2.3,91,0.00,BKN,,0.00,0.0,WeatherDisplay:10.37,2013-05-11 06:36:00,
2013-05-10 23:41:00,53.6,51.0,30.15,East,79,0.2,1.2,91,0.00,BKN,,0.00,0.0,WeatherDisplay:10.37,2013-05-11 06:41:00,
2013-05-10 23:46:00,53.6,51.0,30.15,East,80,2.5,5.0,91,0.00,BKN,,0.00,0.0,WeatherDisplay:10.37,2013-05-11 06:46:00,
2013-05-10 23:51:00,53.5,50.9,30.15,East,87,0.1,2.3,91,0.00,BKN,,0.00,0.0,WeatherDisplay:10.37,2013-05-11 06:51:00,
2013-05-10 23:56:00,53.5,50.9,30.14,ESE,107,1.3,3.5,91,0.00,BKN,,0.00,0.0,WeatherDisplay:10.37,2013-05-11 06:56:00,